sensor_id;sensor_type;location;lat;lon;timestamp;P1;durP1;ratioP1;P2;durP2;ratioP2
5543;SDS011;2795;47.652;13.128;2023-02-01T00:01:06;5.00;;;2.40;;
5543;SDS011;2795;47.652;13.128;2023-02-01T00:03:36;6.00;;;3.10;;
5543;SDS011;2795;47.652;13.128;2023-02-01T00:06:04;9.80;;;3.17;;
5543;SDS011;2795;47.652;13.128;2023-02-01T00:08:31;10.20;;;3.17;;
5543;SDS011;2795;47.652;13.128;2023-02-01T00:10:58;5.90;;;2.90;;
5543;SDS011;2795;47.652;13.128;2023-02-01T00:13:33;8.33;;;3.23;;
5543;SDS011;2795;47.652;13.128;2023-02-01T00:16:02;4.13;;;2.50;;
5543;SDS011;2795;47.652;13.128;2023-02-01T00:18:33;7.43;;;3.30;;
5543;SDS011;2795;47.652;13.128;2023-02-01T00:21:00;9.37;;;3.23;;
5543;SDS011;2795;47.652;13.128;2023-02-01T00:23:34;9.60;;;3.87;;
5543;SDS011;2795;47.652;13.128;2023-02-01T00:26:06;5.13;;;2.97;;
5543;SDS011;2795;47.652;13.128;2023-02-01T00:28:39;14.13;;;4.70;;
5543;SDS011;2795;47.652;13.128;2023-02-01T00:31:06;15.27;;;6.63;;
5543;SDS011;2795;47.652;13.128;2023-02-01T00:33:33;10.03;;;4.30;;
5543;SDS011;2795;47.652;13.128;2023-02-01T00:36:01;9.40;;;3.30;;
5543;SDS011;2795;47.652;13.128;2023-02-01T00:38:31;7.37;;;2.87;;
5543;SDS011;2795;47.652;13.128;2023-02-01T00:41:05;9.57;;;3.00;;
5543;SDS011;2795;47.652;13.128;2023-02-01T00:43:34;7.90;;;3.00;;
5543;SDS011;2795;47.652;13.128;2023-02-01T00:46:03;4.60;;;2.50;;
5543;SDS011;2795;47.652;13.128;2023-02-01T00:48:30;3.20;;;2.03;;
5543;SDS011;2795;47.652;13.128;2023-02-01T00:51:01;6.27;;;2.67;;
5543;SDS011;2795;47.652;13.128;2023-02-01T00:53:29;11.20;;;3.13;;
5543;SDS011;2795;47.652;13.128;2023-02-01T00:55:56;5.13;;;2.53;;
5543;SDS011;2795;47.652;13.128;2023-02-01T00:58:23;7.17;;;2.80;;
5543;SDS011;2795;47.652;13.128;2023-02-01T01:01:05;6.77;;;3.37;;
5543;SDS011;2795;47.652;13.128;2023-02-01T01:03:35;12.63;;;3.33;;
5543;SDS011;2795;47.652;13.128;2023-02-01T01:06:04;5.53;;;2.67;;
5543;SDS011;2795;47.652;13.128;2023-02-01T01:08:34;7.50;;;3.47;;
5543;SDS011;2795;47.652;13.128;2023-02-01T01:11:05;9.00;;;3.40;;
5543;SDS011;2795;47.652;13.128;2023-02-01T01:13:34;7.13;;;2.97;;
5543;SDS011;2795;47.652;13.128;2023-02-01T01:16:02;6.23;;;2.83;;
5543;SDS011;2795;47.652;13.128;2023-02-01T01:18:33;6.53;;;2.97;;
5543;SDS011;2795;47.652;13.128;2023-02-01T01:21:00;5.30;;;2.80;;
5543;SDS011;2795;47.652;13.128;2023-02-01T01:23:27;7.70;;;2.73;;
5543;SDS011;2795;47.652;13.128;2023-02-01T01:25:54;11.73;;;3.70;;
5543;SDS011;2795;47.652;13.128;2023-02-01T01:28:21;14.60;;;3.80;;
5543;SDS011;2795;47.652;13.128;2023-02-01T01:30:48;10.37;;;4.80;;
5543;SDS011;2795;47.652;13.128;2023-02-01T01:33:14;11.97;;;4.47;;
5543;SDS011;2795;47.652;13.128;2023-02-01T01:35:41;10.53;;;4.10;;
5543;SDS011;2795;47.652;13.128;2023-02-01T01:38:08;11.57;;;4.47;;
5543;SDS011;2795;47.652;13.128;2023-02-01T01:40:36;7.83;;;3.90;;
5543;SDS011;2795;47.652;13.128;2023-02-01T01:43:03;8.57;;;3.53;;
5543;SDS011;2795;47.652;13.128;2023-02-01T01:47:58;13.23;;;4.17;;
5543;SDS011;2795;47.652;13.128;2023-02-01T01:50:36;10.80;;;4.37;;
5543;SDS011;2795;47.652;13.128;2023-02-01T01:53:06;11.23;;;4.73;;
5543;SDS011;2795;47.652;13.128;2023-02-01T01:55:35;10.00;;;4.37;;
5543;SDS011;2795;47.652;13.128;2023-02-01T01:58:06;8.20;;;4.00;;
5543;SDS011;2795;47.652;13.128;2023-02-01T02:00:35;10.60;;;4.27;;
5543;SDS011;2795;47.652;13.128;2023-02-01T02:03:18;6.40;;;3.47;;
5543;SDS011;2795;47.652;13.128;2023-02-01T02:05:47;6.30;;;3.37;;
5543;SDS011;2795;47.652;13.128;2023-02-01T02:08:16;7.33;;;2.97;;
5543;SDS011;2795;47.652;13.128;2023-02-01T02:10:43;6.20;;;2.90;;
5543;SDS011;2795;47.652;13.128;2023-02-01T02:13:38;7.23;;;3.00;;
5543;SDS011;2795;47.652;13.128;2023-02-01T02:19:22;4.73;;;2.80;;
5543;SDS011;2795;47.652;13.128;2023-02-01T02:50:46;5.30;;;2.83;;
5543;SDS011;2795;47.652;13.128;2023-02-01T02:53:52;14.13;;;3.57;;
5543;SDS011;2795;47.652;13.128;2023-02-01T02:56:42;5.60;;;3.27;;
5543;SDS011;2795;47.652;13.128;2023-02-01T02:59:28;11.17;;;3.57;;
5543;SDS011;2795;47.652;13.128;2023-02-01T03:02:13;4.23;;;2.80;;
5543;SDS011;2795;47.652;13.128;2023-02-01T03:05:00;5.07;;;3.10;;
5543;SDS011;2795;47.652;13.128;2023-02-01T03:10:40;5.63;;;2.77;;
5543;SDS011;2795;47.652;13.128;2023-02-01T03:13:15;8.83;;;2.50;;
5543;SDS011;2795;47.652;13.128;2023-02-01T03:15:50;5.33;;;3.23;;
5543;SDS011;2795;47.652;13.128;2023-02-01T03:21:04;7.80;;;4.33;;
5543;SDS011;2795;47.652;13.128;2023-02-01T03:23:36;6.53;;;4.20;;
5543;SDS011;2795;47.652;13.128;2023-02-01T03:26:05;9.97;;;4.93;;
5543;SDS011;2795;47.652;13.128;2023-02-01T03:28:34;6.53;;;3.80;;
5543;SDS011;2795;47.652;13.128;2023-02-01T03:31:03;7.83;;;3.37;;
5543;SDS011;2795;47.652;13.128;2023-02-01T03:33:29;10.07;;;3.80;;
5543;SDS011;2795;47.652;13.128;2023-02-01T03:36:05;9.93;;;4.20;;
5543;SDS011;2795;47.652;13.128;2023-02-01T03:41:14;11.00;;;4.53;;
5543;SDS011;2795;47.652;13.128;2023-02-01T03:43:53;14.57;;;4.63;;
5543;SDS011;2795;47.652;13.128;2023-02-01T03:46:56;11.00;;;4.93;;
5543;SDS011;2795;47.652;13.128;2023-02-01T03:49:45;11.40;;;3.50;;
5543;SDS011;2795;47.652;13.128;2023-02-01T03:52:20;6.57;;;3.33;;
5543;SDS011;2795;47.652;13.128;2023-02-01T03:54:49;9.10;;;3.40;;
5543;SDS011;2795;47.652;13.128;2023-02-01T03:57:17;22.97;;;12.43;;
5543;SDS011;2795;47.652;13.128;2023-02-01T03:59:48;17.80;;;7.97;;
5543;SDS011;2795;47.652;13.128;2023-02-01T04:02:17;10.13;;;4.10;;
5543;SDS011;2795;47.652;13.128;2023-02-01T04:04:44;4.47;;;3.23;;
5543;SDS011;2795;47.652;13.128;2023-02-01T04:07:11;7.33;;;2.60;;
5543;SDS011;2795;47.652;13.128;2023-02-01T04:09:38;7.63;;;3.13;;
5543;SDS011;2795;47.652;13.128;2023-02-01T04:12:05;7.90;;;3.17;;
5543;SDS011;2795;47.652;13.128;2023-02-01T04:14:32;4.40;;;3.03;;
5543;SDS011;2795;47.652;13.128;2023-02-01T04:16:58;6.90;;;3.80;;
5543;SDS011;2795;47.652;13.128;2023-02-01T04:19:25;7.90;;;3.77;;
5543;SDS011;2795;47.652;13.128;2023-02-01T04:21:52;6.57;;;3.17;;
5543;SDS011;2795;47.652;13.128;2023-02-01T04:24:18;5.33;;;2.80;;
5543;SDS011;2795;47.652;13.128;2023-02-01T04:26:45;6.60;;;3.57;;
5543;SDS011;2795;47.652;13.128;2023-02-01T04:29:11;8.90;;;3.47;;
5543;SDS011;2795;47.652;13.128;2023-02-01T04:31:38;7.70;;;3.40;;
5543;SDS011;2795;47.652;13.128;2023-02-01T04:34:05;3.70;;;2.60;;
5543;SDS011;2795;47.652;13.128;2023-02-01T04:36:31;9.20;;;3.97;;
5543;SDS011;2795;47.652;13.128;2023-02-01T04:38:58;11.13;;;4.10;;
5543;SDS011;2795;47.652;13.128;2023-02-01T04:41:25;4.73;;;2.80;;
5543;SDS011;2795;47.652;13.128;2023-02-01T04:43:51;6.27;;;2.90;;
5543;SDS011;2795;47.652;13.128;2023-02-01T04:46:19;11.97;;;4.17;;
5543;SDS011;2795;47.652;13.128;2023-02-01T04:48:46;23.07;;;5.23;;
5543;SDS011;2795;47.652;13.128;2023-02-01T04:51:12;4.97;;;3.07;;
5543;SDS011;2795;47.652;13.128;2023-02-01T04:53:39;8.00;;;3.23;;
5543;SDS011;2795;47.652;13.128;2023-02-01T04:56:06;8.33;;;4.03;;
5543;SDS011;2795;47.652;13.128;2023-02-01T04:58:33;13.43;;;4.37;;
5543;SDS011;2795;47.652;13.128;2023-02-01T05:01:01;9.33;;;3.70;;
5543;SDS011;2795;47.652;13.128;2023-02-01T05:03:31;4.77;;;3.63;;
5543;SDS011;2795;47.652;13.128;2023-02-01T05:05:59;8.80;;;3.60;;
5543;SDS011;2795;47.652;13.128;2023-02-01T05:08:26;7.80;;;4.03;;
5543;SDS011;2795;47.652;13.128;2023-02-01T05:10:53;5.50;;;3.40;;
5543;SDS011;2795;47.652;13.128;2023-02-01T05:13:19;12.77;;;4.90;;
5543;SDS011;2795;47.652;13.128;2023-02-01T05:16:05;20.30;;;5.63;;
5543;SDS011;2795;47.652;13.128;2023-02-01T05:18:32;9.83;;;4.50;;
5543;SDS011;2795;47.652;13.128;2023-02-01T05:20:58;12.57;;;4.47;;
5543;SDS011;2795;47.652;13.128;2023-02-01T05:23:25;14.77;;;5.20;;
5543;SDS011;2795;47.652;13.128;2023-02-01T05:25:58;11.50;;;5.43;;
5543;SDS011;2795;47.652;13.128;2023-02-01T05:28:26;17.47;;;6.80;;
5543;SDS011;2795;47.652;13.128;2023-02-01T05:30:53;14.93;;;4.70;;
5543;SDS011;2795;47.652;13.128;2023-02-01T05:33:21;8.33;;;4.40;;
5543;SDS011;2795;47.652;13.128;2023-02-01T05:35:47;10.50;;;5.47;;
5543;SDS011;2795;47.652;13.128;2023-02-01T05:38:14;14.83;;;5.57;;
5543;SDS011;2795;47.652;13.128;2023-02-01T05:40:41;18.63;;;5.10;;
5543;SDS011;2795;47.652;13.128;2023-02-01T05:43:08;8.27;;;5.00;;
5543;SDS011;2795;47.652;13.128;2023-02-01T05:45:34;18.53;;;6.47;;
5543;SDS011;2795;47.652;13.128;2023-02-01T05:48:01;9.90;;;5.00;;
5543;SDS011;2795;47.652;13.128;2023-02-01T05:50:28;14.00;;;5.73;;
5543;SDS011;2795;47.652;13.128;2023-02-01T05:52:54;11.90;;;5.37;;
5543;SDS011;2795;47.652;13.128;2023-02-01T05:55:21;12.70;;;6.07;;
5543;SDS011;2795;47.652;13.128;2023-02-01T05:57:50;20.60;;;6.80;;
5543;SDS011;2795;47.652;13.128;2023-02-01T06:00:17;9.93;;;5.40;;
5543;SDS011;2795;47.652;13.128;2023-02-01T06:02:47;29.50;;;6.73;;
5543;SDS011;2795;47.652;13.128;2023-02-01T06:05:13;16.40;;;6.17;;
5543;SDS011;2795;47.652;13.128;2023-02-01T06:07:40;13.30;;;5.60;;
5543;SDS011;2795;47.652;13.128;2023-02-01T06:10:07;14.40;;;5.07;;
5543;SDS011;2795;47.652;13.128;2023-02-01T06:12:34;16.80;;;5.87;;
5543;SDS011;2795;47.652;13.128;2023-02-01T06:15:01;9.53;;;5.20;;
5543;SDS011;2795;47.652;13.128;2023-02-01T06:17:29;19.77;;;5.80;;
5543;SDS011;2795;47.652;13.128;2023-02-01T06:19:56;12.20;;;5.50;;
5543;SDS011;2795;47.652;13.128;2023-02-01T06:22:23;18.77;;;5.93;;
5543;SDS011;2795;47.652;13.128;2023-02-01T06:24:50;18.93;;;6.90;;
5543;SDS011;2795;47.652;13.128;2023-02-01T06:27:16;15.57;;;6.47;;
5543;SDS011;2795;47.652;13.128;2023-02-01T06:29:43;15.27;;;7.00;;
5543;SDS011;2795;47.652;13.128;2023-02-01T06:32:10;11.10;;;5.13;;
5543;SDS011;2795;47.652;13.128;2023-02-01T06:34:37;13.80;;;5.40;;
5543;SDS011;2795;47.652;13.128;2023-02-01T06:37:05;12.00;;;5.93;;
5543;SDS011;2795;47.652;13.128;2023-02-01T06:39:33;14.30;;;5.80;;
5543;SDS011;2795;47.652;13.128;2023-02-01T06:41:59;17.93;;;6.90;;
5543;SDS011;2795;47.652;13.128;2023-02-01T06:44:27;15.67;;;5.90;;
5543;SDS011;2795;47.652;13.128;2023-02-01T06:46:54;12.60;;;5.90;;
5543;SDS011;2795;47.652;13.128;2023-02-01T06:49:21;13.33;;;5.77;;
5543;SDS011;2795;47.652;13.128;2023-02-01T06:51:48;8.00;;;4.67;;
5543;SDS011;2795;47.652;13.128;2023-02-01T06:54:17;10.63;;;5.70;;
5543;SDS011;2795;47.652;13.128;2023-02-01T06:56:45;11.40;;;5.87;;
5543;SDS011;2795;47.652;13.128;2023-02-01T06:59:11;10.93;;;5.90;;
5543;SDS011;2795;47.652;13.128;2023-02-01T07:01:41;12.30;;;5.97;;
5543;SDS011;2795;47.652;13.128;2023-02-01T07:04:09;13.67;;;6.40;;
5543;SDS011;2795;47.652;13.128;2023-02-01T07:06:40;14.43;;;5.47;;
5543;SDS011;2795;47.652;13.128;2023-02-01T07:09:07;15.80;;;5.53;;
5543;SDS011;2795;47.652;13.128;2023-02-01T07:11:34;14.50;;;6.37;;
5543;SDS011;2795;47.652;13.128;2023-02-01T07:14:00;9.10;;;5.50;;
5543;SDS011;2795;47.652;13.128;2023-02-01T07:16:27;12.93;;;6.57;;
5543;SDS011;2795;47.652;13.128;2023-02-01T07:18:55;15.73;;;5.70;;
5543;SDS011;2795;47.652;13.128;2023-02-01T07:21:22;17.73;;;5.67;;
5543;SDS011;2795;47.652;13.128;2023-02-01T07:23:48;16.33;;;7.47;;
5543;SDS011;2795;47.652;13.128;2023-02-01T07:26:15;12.33;;;6.50;;
5543;SDS011;2795;47.652;13.128;2023-02-01T07:28:42;26.13;;;8.63;;
5543;SDS011;2795;47.652;13.128;2023-02-01T07:31:13;13.70;;;6.93;;
5543;SDS011;2795;47.652;13.128;2023-02-01T07:33:41;18.47;;;6.30;;
5543;SDS011;2795;47.652;13.128;2023-02-01T07:36:10;15.73;;;6.77;;
5543;SDS011;2795;47.652;13.128;2023-02-01T07:38:38;11.47;;;5.83;;
5543;SDS011;2795;47.652;13.128;2023-02-01T07:41:04;18.37;;;6.83;;
5543;SDS011;2795;47.652;13.128;2023-02-01T07:43:32;14.43;;;6.87;;
5543;SDS011;2795;47.652;13.128;2023-02-01T07:46:02;17.57;;;7.63;;
5543;SDS011;2795;47.652;13.128;2023-02-01T07:48:30;16.90;;;8.90;;
5543;SDS011;2795;47.652;13.128;2023-02-01T07:50:58;19.23;;;9.33;;
5543;SDS011;2795;47.652;13.128;2023-02-01T07:53:31;24.80;;;9.93;;
5543;SDS011;2795;47.652;13.128;2023-02-01T07:55:59;24.13;;;9.77;;
5543;SDS011;2795;47.652;13.128;2023-02-01T07:58:27;17.13;;;8.00;;
5543;SDS011;2795;47.652;13.128;2023-02-01T08:00:53;20.23;;;7.93;;
5543;SDS011;2795;47.652;13.128;2023-02-01T08:03:39;13.83;;;7.30;;
5543;SDS011;2795;47.652;13.128;2023-02-01T08:06:06;21.20;;;7.33;;
5543;SDS011;2795;47.652;13.128;2023-02-01T08:08:33;15.00;;;7.00;;
5543;SDS011;2795;47.652;13.128;2023-02-01T08:11:01;25.80;;;7.80;;
5543;SDS011;2795;47.652;13.128;2023-02-01T08:13:29;13.30;;;6.50;;
5543;SDS011;2795;47.652;13.128;2023-02-01T08:16:00;14.90;;;6.80;;
5543;SDS011;2795;47.652;13.128;2023-02-01T08:18:27;17.60;;;6.83;;
5543;SDS011;2795;47.652;13.128;2023-02-01T08:20:56;34.43;;;9.00;;
5543;SDS011;2795;47.652;13.128;2023-02-01T08:23:22;18.70;;;6.67;;
5543;SDS011;2795;47.652;13.128;2023-02-01T08:25:50;17.53;;;7.50;;
5543;SDS011;2795;47.652;13.128;2023-02-01T08:28:17;15.73;;;7.23;;
5543;SDS011;2795;47.652;13.128;2023-02-01T08:30:43;20.40;;;8.03;;
5543;SDS011;2795;47.652;13.128;2023-02-01T08:33:11;19.10;;;7.90;;
5543;SDS011;2795;47.652;13.128;2023-02-01T08:35:38;14.03;;;6.43;;
5543;SDS011;2795;47.652;13.128;2023-02-01T08:38:09;18.23;;;8.37;;
5543;SDS011;2795;47.652;13.128;2023-02-01T08:40:36;14.43;;;6.43;;
5543;SDS011;2795;47.652;13.128;2023-02-01T08:43:04;22.27;;;9.60;;
5543;SDS011;2795;47.652;13.128;2023-02-01T08:45:34;23.20;;;9.77;;
5543;SDS011;2795;47.652;13.128;2023-02-01T08:48:01;18.10;;;8.80;;
5543;SDS011;2795;47.652;13.128;2023-02-01T08:50:28;25.07;;;8.60;;
5543;SDS011;2795;47.652;13.128;2023-02-01T08:52:56;18.70;;;8.03;;
5543;SDS011;2795;47.652;13.128;2023-02-01T08:55:23;23.73;;;8.10;;
5543;SDS011;2795;47.652;13.128;2023-02-01T08:57:49;12.83;;;6.60;;
5543;SDS011;2795;47.652;13.128;2023-02-01T09:00:16;17.70;;;7.53;;
5543;SDS011;2795;47.652;13.128;2023-02-01T09:02:43;16.70;;;7.10;;
5543;SDS011;2795;47.652;13.128;2023-02-01T09:05:12;12.47;;;6.00;;
5543;SDS011;2795;47.652;13.128;2023-02-01T09:07:41;13.67;;;6.23;;
5543;SDS011;2795;47.652;13.128;2023-02-01T09:10:09;15.57;;;7.10;;
5543;SDS011;2795;47.652;13.128;2023-02-01T09:12:36;19.53;;;10.80;;
5543;SDS011;2795;47.652;13.128;2023-02-01T09:15:04;11.17;;;6.20;;
5543;SDS011;2795;47.652;13.128;2023-02-01T09:17:33;21.70;;;9.20;;
5543;SDS011;2795;47.652;13.128;2023-02-01T09:20:02;20.13;;;9.00;;
5543;SDS011;2795;47.652;13.128;2023-02-01T09:22:30;30.87;;;15.20;;
5543;SDS011;2795;47.652;13.128;2023-02-01T09:24:56;14.47;;;6.70;;
5543;SDS011;2795;47.652;13.128;2023-02-01T09:27:23;19.97;;;8.30;;
5543;SDS011;2795;47.652;13.128;2023-02-01T09:29:50;15.47;;;6.30;;
5543;SDS011;2795;47.652;13.128;2023-02-01T09:32:19;16.87;;;6.97;;
5543;SDS011;2795;47.652;13.128;2023-02-01T09:34:48;10.30;;;5.00;;
5543;SDS011;2795;47.652;13.128;2023-02-01T09:37:15;18.87;;;7.40;;
5543;SDS011;2795;47.652;13.128;2023-02-01T09:39:43;9.83;;;5.07;;
5543;SDS011;2795;47.652;13.128;2023-02-01T09:42:23;9.63;;;5.53;;
5543;SDS011;2795;47.652;13.128;2023-02-01T09:48:02;8.47;;;4.33;;
5543;SDS011;2795;47.652;13.128;2023-02-01T09:50:37;14.73;;;4.70;;
5543;SDS011;2795;47.652;13.128;2023-02-01T09:53:11;9.20;;;4.10;;
5543;SDS011;2795;47.652;13.128;2023-02-01T09:55:43;8.70;;;4.00;;
5543;SDS011;2795;47.652;13.128;2023-02-01T09:58:15;7.70;;;4.17;;
5543;SDS011;2795;47.652;13.128;2023-02-01T10:01:01;7.80;;;4.33;;
5543;SDS011;2795;47.652;13.128;2023-02-01T10:03:30;6.03;;;3.57;;
5543;SDS011;2795;47.652;13.128;2023-02-01T10:11:29;7.93;;;4.23;;
5543;SDS011;2795;47.652;13.128;2023-02-01T10:19:49;11.33;;;4.07;;
5543;SDS011;2795;47.652;13.128;2023-02-01T10:25:50;41.70;;;18.00;;
5543;SDS011;2795;47.652;13.128;2023-02-01T10:28:20;12.07;;;4.87;;
5543;SDS011;2795;47.652;13.128;2023-02-01T10:30:51;9.33;;;3.73;;
5543;SDS011;2795;47.652;13.128;2023-02-01T10:33:25;16.27;;;5.40;;
5543;SDS011;2795;47.652;13.128;2023-02-01T10:35:55;21.03;;;8.27;;
5543;SDS011;2795;47.652;13.128;2023-02-01T10:38:27;16.03;;;5.10;;
5543;SDS011;2795;47.652;13.128;2023-02-01T10:41:03;11.03;;;4.40;;
5543;SDS011;2795;47.652;13.128;2023-02-01T10:43:41;31.67;;;9.63;;
5543;SDS011;2795;47.652;13.128;2023-02-01T10:46:08;9.10;;;4.13;;
5543;SDS011;2795;47.652;13.128;2023-02-01T10:48:36;20.10;;;8.23;;
5543;SDS011;2795;47.652;13.128;2023-02-01T10:51:08;27.63;;;13.63;;
5543;SDS011;2795;47.652;13.128;2023-02-01T10:56:18;56.03;;;28.70;;
5543;SDS011;2795;47.652;13.128;2023-02-01T10:58:52;36.40;;;19.17;;
5543;SDS011;2795;47.652;13.128;2023-02-01T11:01:48;15.27;;;8.53;;
5543;SDS011;2795;47.652;13.128;2023-02-01T11:06:51;23.40;;;11.70;;
5543;SDS011;2795;47.652;13.128;2023-02-01T11:09:22;20.90;;;10.07;;
5543;SDS011;2795;47.652;13.128;2023-02-01T11:11:53;18.93;;;7.43;;
5543;SDS011;2795;47.652;13.128;2023-02-01T11:19:24;12.03;;;3.73;;
5543;SDS011;2795;47.652;13.128;2023-02-01T11:21:54;8.43;;;4.10;;
5543;SDS011;2795;47.652;13.128;2023-02-01T11:24:27;13.50;;;5.30;;
5543;SDS011;2795;47.652;13.128;2023-02-01T11:26:57;10.40;;;4.10;;
5543;SDS011;2795;47.652;13.128;2023-02-01T11:29:25;10.50;;;4.07;;
5543;SDS011;2795;47.652;13.128;2023-02-01T11:31:58;4.23;;;2.70;;
5543;SDS011;2795;47.652;13.128;2023-02-01T11:34:28;8.40;;;3.63;;
5543;SDS011;2795;47.652;13.128;2023-02-01T11:37:00;7.37;;;4.03;;
5543;SDS011;2795;47.652;13.128;2023-02-01T11:39:33;14.70;;;6.30;;
5543;SDS011;2795;47.652;13.128;2023-02-01T11:42:03;8.67;;;4.13;;
5543;SDS011;2795;47.652;13.128;2023-02-01T11:44:38;17.10;;;6.03;;
5543;SDS011;2795;47.652;13.128;2023-02-01T11:47:26;9.90;;;4.20;;
5543;SDS011;2795;47.652;13.128;2023-02-01T11:49:57;6.67;;;2.67;;
5543;SDS011;2795;47.652;13.128;2023-02-01T12:00:54;5.83;;;2.43;;
5543;SDS011;2795;47.652;13.128;2023-02-01T12:09:39;3.10;;;1.90;;
5543;SDS011;2795;47.652;13.128;2023-02-01T12:12:37;4.73;;;2.07;;
5543;SDS011;2795;47.652;13.128;2023-02-01T12:15:30;5.37;;;2.90;;
5543;SDS011;2795;47.652;13.128;2023-02-01T12:18:13;3.73;;;2.23;;
5543;SDS011;2795;47.652;13.128;2023-02-01T12:20:57;3.83;;;2.07;;
5543;SDS011;2795;47.652;13.128;2023-02-01T12:42:47;1.50;;;1.40;;
5543;SDS011;2795;47.652;13.128;2023-02-01T12:48:19;4.03;;;1.93;;
5543;SDS011;2795;47.652;13.128;2023-02-01T12:50:56;9.83;;;2.63;;
5543;SDS011;2795;47.652;13.128;2023-02-01T12:53:45;6.63;;;1.77;;
5543;SDS011;2795;47.652;13.128;2023-02-01T12:57:02;8.30;;;3.00;;
5543;SDS011;2795;47.652;13.128;2023-02-01T12:59:26;5.43;;;2.17;;
5543;SDS011;2795;47.652;13.128;2023-02-01T13:02:21;9.30;;;2.60;;
5543;SDS011;2795;47.652;13.128;2023-02-01T13:04:56;5.23;;;2.17;;
5543;SDS011;2795;47.652;13.128;2023-02-01T13:07:30;4.50;;;2.03;;
5543;SDS011;2795;47.652;13.128;2023-02-01T13:10:11;5.17;;;2.00;;
5543;SDS011;2795;47.652;13.128;2023-02-01T13:12:44;6.53;;;1.80;;
5543;SDS011;2795;47.652;13.128;2023-02-01T13:15:26;4.30;;;2.13;;
5543;SDS011;2795;47.652;13.128;2023-02-01T13:17:57;6.73;;;2.30;;
5543;SDS011;2795;47.652;13.128;2023-02-01T13:20:35;14.83;;;3.40;;
5543;SDS011;2795;47.652;13.128;2023-02-01T13:23:23;11.60;;;2.90;;
5543;SDS011;2795;47.652;13.128;2023-02-01T13:25:57;6.97;;;2.37;;
5543;SDS011;2795;47.652;13.128;2023-02-01T13:28:26;2.50;;;1.80;;
5543;SDS011;2795;47.652;13.128;2023-02-01T13:36:50;3.10;;;1.83;;
5543;SDS011;2795;47.652;13.128;2023-02-01T13:41:59;10.03;;;2.70;;
5543;SDS011;2795;47.652;13.128;2023-02-01T13:47:02;3.63;;;1.80;;
5543;SDS011;2795;47.652;13.128;2023-02-01T13:49:32;2.70;;;1.97;;
5543;SDS011;2795;47.652;13.128;2023-02-01T13:52:04;4.77;;;2.07;;
5543;SDS011;2795;47.652;13.128;2023-02-01T13:54:32;5.10;;;2.20;;
5543;SDS011;2795;47.652;13.128;2023-02-01T13:57:04;6.20;;;2.20;;
5543;SDS011;2795;47.652;13.128;2023-02-01T14:05:54;5.17;;;2.47;;
5543;SDS011;2795;47.652;13.128;2023-02-01T14:13:23;7.30;;;2.57;;
5543;SDS011;2795;47.652;13.128;2023-02-01T14:26:21;12.37;;;3.27;;
5543;SDS011;2795;47.652;13.128;2023-02-01T14:29:00;6.93;;;2.70;;
5543;SDS011;2795;47.652;13.128;2023-02-01T14:31:31;6.07;;;2.80;;
5543;SDS011;2795;47.652;13.128;2023-02-01T14:34:04;8.93;;;3.30;;
5543;SDS011;2795;47.652;13.128;2023-02-01T14:50:34;4.33;;;2.50;;
5543;SDS011;2795;47.652;13.128;2023-02-01T14:58:42;2.30;;;2.10;;
5543;SDS011;2795;47.652;13.128;2023-02-01T15:03:54;7.03;;;2.53;;
5543;SDS011;2795;47.652;13.128;2023-02-01T15:09:14;10.23;;;5.33;;
5543;SDS011;2795;47.652;13.128;2023-02-01T15:12:03;12.83;;;6.70;;
5543;SDS011;2795;47.652;13.128;2023-02-01T15:14:41;19.53;;;5.03;;
5543;SDS011;2795;47.652;13.128;2023-02-01T15:20:23;15.70;;;5.67;;
5543;SDS011;2795;47.652;13.128;2023-02-01T15:22:53;10.10;;;3.80;;
5543;SDS011;2795;47.652;13.128;2023-02-01T15:25:35;7.53;;;2.77;;
5543;SDS011;2795;47.652;13.128;2023-02-01T15:28:13;6.70;;;2.37;;
5543;SDS011;2795;47.652;13.128;2023-02-01T15:30:51;3.20;;;2.03;;
5543;SDS011;2795;47.652;13.128;2023-02-01T15:33:20;5.30;;;2.40;;
5543;SDS011;2795;47.652;13.128;2023-02-01T15:35:48;6.17;;;2.87;;
5543;SDS011;2795;47.652;13.128;2023-02-01T15:38:31;12.23;;;2.97;;
5543;SDS011;2795;47.652;13.128;2023-02-01T15:41:07;11.30;;;4.80;;
5543;SDS011;2795;47.652;13.128;2023-02-01T15:46:41;7.67;;;3.00;;
5543;SDS011;2795;47.652;13.128;2023-02-01T15:52:00;5.77;;;2.90;;
5543;SDS011;2795;47.652;13.128;2023-02-01T15:54:31;10.03;;;3.40;;
5543;SDS011;2795;47.652;13.128;2023-02-01T15:57:22;10.17;;;4.40;;
5543;SDS011;2795;47.652;13.128;2023-02-01T16:00:33;10.30;;;3.30;;
5543;SDS011;2795;47.652;13.128;2023-02-01T16:03:34;5.93;;;2.70;;
5543;SDS011;2795;47.652;13.128;2023-02-01T16:06:26;8.50;;;2.70;;
5543;SDS011;2795;47.652;13.128;2023-02-01T16:09:03;5.20;;;2.50;;
5543;SDS011;2795;47.652;13.128;2023-02-01T16:12:22;4.80;;;3.27;;
5543;SDS011;2795;47.652;13.128;2023-02-01T16:14:27;7.97;;;3.20;;
5543;SDS011;2795;47.652;13.128;2023-02-01T16:16:55;25.83;;;15.53;;
5543;SDS011;2795;47.652;13.128;2023-02-01T16:19:24;5.23;;;2.80;;
5543;SDS011;2795;47.652;13.128;2023-02-01T16:21:55;16.33;;;9.77;;
5543;SDS011;2795;47.652;13.128;2023-02-01T16:24:24;15.70;;;3.70;;
5543;SDS011;2795;47.652;13.128;2023-02-01T16:26:54;5.27;;;2.27;;
5543;SDS011;2795;47.652;13.128;2023-02-01T16:29:20;11.93;;;3.50;;
5543;SDS011;2795;47.652;13.128;2023-02-01T16:31:50;8.80;;;2.77;;
5543;SDS011;2795;47.652;13.128;2023-02-01T16:34:17;6.87;;;2.30;;
5543;SDS011;2795;47.652;13.128;2023-02-01T16:36:48;4.53;;;2.30;;
5543;SDS011;2795;47.652;13.128;2023-02-01T16:39:19;5.90;;;2.60;;
5543;SDS011;2795;47.652;13.128;2023-02-01T16:41:46;5.33;;;2.60;;
5543;SDS011;2795;47.652;13.128;2023-02-01T16:44:20;9.80;;;3.20;;
5543;SDS011;2795;47.652;13.128;2023-02-01T16:46:48;3.40;;;2.13;;
5543;SDS011;2795;47.652;13.128;2023-02-01T16:49:24;3.83;;;2.27;;
5543;SDS011;2795;47.652;13.128;2023-02-01T16:51:56;4.20;;;2.90;;
5543;SDS011;2795;47.652;13.128;2023-02-01T16:54:23;7.60;;;2.40;;
5543;SDS011;2795;47.652;13.128;2023-02-01T16:56:50;7.67;;;2.90;;
5543;SDS011;2795;47.652;13.128;2023-02-01T16:59:21;9.17;;;2.80;;
5543;SDS011;2795;47.652;13.128;2023-02-01T17:01:49;5.87;;;3.07;;
5543;SDS011;2795;47.652;13.128;2023-02-01T17:04:16;7.83;;;2.97;;
5543;SDS011;2795;47.652;13.128;2023-02-01T17:06:43;8.33;;;3.00;;
5543;SDS011;2795;47.652;13.128;2023-02-01T17:09:13;5.17;;;2.30;;
5543;SDS011;2795;47.652;13.128;2023-02-01T17:11:41;6.10;;;3.00;;
5543;SDS011;2795;47.652;13.128;2023-02-01T17:14:16;5.90;;;2.93;;
5543;SDS011;2795;47.652;13.128;2023-02-01T17:16:45;6.53;;;2.80;;
5543;SDS011;2795;47.652;13.128;2023-02-01T17:19:14;4.00;;;2.50;;
5543;SDS011;2795;47.652;13.128;2023-02-01T17:21:46;8.63;;;3.40;;
5543;SDS011;2795;47.652;13.128;2023-02-01T17:24:29;5.90;;;3.10;;
5543;SDS011;2795;47.652;13.128;2023-02-01T17:27:13;8.47;;;3.60;;
5543;SDS011;2795;47.652;13.128;2023-02-01T17:29:41;12.47;;;3.77;;
5543;SDS011;2795;47.652;13.128;2023-02-01T17:32:13;4.67;;;3.20;;
5543;SDS011;2795;47.652;13.128;2023-02-01T17:34:44;4.37;;;2.80;;
5543;SDS011;2795;47.652;13.128;2023-02-01T17:37:15;7.13;;;3.50;;
5543;SDS011;2795;47.652;13.128;2023-02-01T17:39:51;6.43;;;3.10;;
5543;SDS011;2795;47.652;13.128;2023-02-01T17:42:22;6.53;;;3.00;;
5543;SDS011;2795;47.652;13.128;2023-02-01T17:44:51;9.67;;;3.27;;
5543;SDS011;2795;47.652;13.128;2023-02-01T17:47:21;11.53;;;2.63;;
5543;SDS011;2795;47.652;13.128;2023-02-01T17:49:47;5.37;;;2.67;;
5543;SDS011;2795;47.652;13.128;2023-02-01T17:52:17;4.93;;;2.73;;
5543;SDS011;2795;47.652;13.128;2023-02-01T17:54:44;6.43;;;2.90;;
5543;SDS011;2795;47.652;13.128;2023-02-01T17:57:13;5.23;;;2.83;;
5543;SDS011;2795;47.652;13.128;2023-02-01T17:59:41;8.53;;;3.40;;
5543;SDS011;2795;47.652;13.128;2023-02-01T18:02:18;11.30;;;3.57;;
5543;SDS011;2795;47.652;13.128;2023-02-01T18:04:47;5.43;;;2.50;;
5543;SDS011;2795;47.652;13.128;2023-02-01T18:07:15;5.60;;;2.37;;
5543;SDS011;2795;47.652;13.128;2023-02-01T18:09:44;10.37;;;4.63;;
5543;SDS011;2795;47.652;13.128;2023-02-01T18:12:20;5.60;;;2.50;;
5543;SDS011;2795;47.652;13.128;2023-02-01T18:14:50;8.17;;;2.50;;